sensor_id;sensor_type;location;lat;lon;timestamp;P1;durP1;ratioP1;P2;durP2;ratioP2
55260;SDS011;41123;51.416;6.758;2022-08-21T00:00:39;11.88;;;3.65;;
55260;SDS011;41123;51.416;6.758;2022-08-21T00:03:07;10.65;;;3.78;;
55260;SDS011;41123;51.416;6.758;2022-08-21T00:05:36;12.40;;;3.85;;
55260;SDS011;41123;51.416;6.758;2022-08-21T00:08:02;9.18;;;3.90;;
55260;SDS011;41123;51.416;6.758;2022-08-21T00:10:29;11.48;;;4.18;;
55260;SDS011;41123;51.416;6.758;2022-08-21T00:12:56;13.88;;;4.40;;
55260;SDS011;41123;51.416;6.758;2022-08-21T00:15:24;12.82;;;3.97;;
55260;SDS011;41123;51.416;6.758;2022-08-21T00:17:52;11.88;;;4.30;;
55260;SDS011;41123;51.416;6.758;2022-08-21T00:20:19;11.30;;;4.05;;
55260;SDS011;41123;51.416;6.758;2022-08-21T00:22:46;12.15;;;4.10;;
55260;SDS011;41123;51.416;6.758;2022-08-21T00:25:13;14.82;;;4.18;;
55260;SDS011;41123;51.416;6.758;2022-08-21T00:27:41;10.55;;;3.70;;
55260;SDS011;41123;51.416;6.758;2022-08-21T00:30:09;11.30;;;3.83;;
55260;SDS011;41123;51.416;6.758;2022-08-21T00:32:36;9.85;;;3.80;;
55260;SDS011;41123;51.416;6.758;2022-08-21T00:35:03;8.88;;;4.07;;
55260;SDS011;41123;51.416;6.758;2022-08-21T00:37:30;9.17;;;3.90;;
55260;SDS011;41123;51.416;6.758;2022-08-21T00:39:56;9.37;;;3.87;;
55260;SDS011;41123;51.416;6.758;2022-08-21T00:42:23;11.60;;;4.38;;
55260;SDS011;41123;51.416;6.758;2022-08-21T00:44:49;11.35;;;4.10;;
55260;SDS011;41123;51.416;6.758;2022-08-21T00:47:17;12.38;;;4.05;;
55260;SDS011;41123;51.416;6.758;2022-08-21T00:49:43;10.13;;;3.97;;
55260;SDS011;41123;51.416;6.758;2022-08-21T00:52:11;10.67;;;4.00;;
55260;SDS011;41123;51.416;6.758;2022-08-21T00:54:39;12.43;;;4.25;;
55260;SDS011;41123;51.416;6.758;2022-08-21T00:57:07;11.80;;;4.07;;
55260;SDS011;41123;51.416;6.758;2022-08-21T00:59:35;11.88;;;4.28;;
55260;SDS011;41123;51.416;6.758;2022-08-21T01:02:03;11.40;;;4.30;;
55260;SDS011;41123;51.416;6.758;2022-08-21T01:04:30;12.68;;;4.70;;
55260;SDS011;41123;51.416;6.758;2022-08-21T01:06:56;10.85;;;5.03;;
55260;SDS011;41123;51.416;6.758;2022-08-21T01:09:22;11.15;;;4.70;;
55260;SDS011;41123;51.416;6.758;2022-08-21T01:11:49;9.70;;;4.40;;
55260;SDS011;41123;51.416;6.758;2022-08-21T01:14:15;11.73;;;4.93;;
55260;SDS011;41123;51.416;6.758;2022-08-21T01:16:44;10.55;;;4.55;;
55260;SDS011;41123;51.416;6.758;2022-08-21T01:19:11;14.77;;;4.65;;
55260;SDS011;41123;51.416;6.758;2022-08-21T01:21:37;13.32;;;5.03;;
55260;SDS011;41123;51.416;6.758;2022-08-21T01:24:04;10.30;;;4.57;;
55260;SDS011;41123;51.416;6.758;2022-08-21T01:26:31;13.48;;;4.68;;
55260;SDS011;41123;51.416;6.758;2022-08-21T01:29:01;10.88;;;4.65;;
55260;SDS011;41123;51.416;6.758;2022-08-21T01:35:17;12.30;;;4.85;;
55260;SDS011;41123;51.416;6.758;2022-08-21T01:37:44;11.93;;;5.10;;
55260;SDS011;41123;51.416;6.758;2022-08-21T01:40:11;10.50;;;5.35;;
55260;SDS011;41123;51.416;6.758;2022-08-21T01:42:37;11.65;;;5.28;;
55260;SDS011;41123;51.416;6.758;2022-08-21T01:45:04;11.85;;;5.25;;
55260;SDS011;41123;51.416;6.758;2022-08-21T01:47:30;11.75;;;5.30;;
55260;SDS011;41123;51.416;6.758;2022-08-21T01:49:58;15.50;;;5.30;;
55260;SDS011;41123;51.416;6.758;2022-08-21T01:52:24;12.95;;;5.38;;
55260;SDS011;41123;51.416;6.758;2022-08-21T01:54:51;14.55;;;5.72;;
55260;SDS011;41123;51.416;6.758;2022-08-21T01:57:17;17.02;;;5.45;;
55260;SDS011;41123;51.416;6.758;2022-08-21T01:59:43;13.20;;;5.22;;
55260;SDS011;41123;51.416;6.758;2022-08-21T02:02:10;12.73;;;5.40;;
55260;SDS011;41123;51.416;6.758;2022-08-21T02:04:36;12.13;;;5.38;;
55260;SDS011;41123;51.416;6.758;2022-08-21T02:07:03;10.63;;;5.45;;
55260;SDS011;41123;51.416;6.758;2022-08-21T02:09:29;13.63;;;5.60;;
55260;SDS011;41123;51.416;6.758;2022-08-21T02:11:55;11.70;;;5.65;;
55260;SDS011;41123;51.416;6.758;2022-08-21T02:14:22;13.75;;;5.85;;
55260;SDS011;41123;51.416;6.758;2022-08-21T02:16:48;11.95;;;5.90;;
55260;SDS011;41123;51.416;6.758;2022-08-21T02:19:15;13.45;;;5.70;;
55260;SDS011;41123;51.416;6.758;2022-08-21T02:21:42;13.60;;;5.75;;
55260;SDS011;41123;51.416;6.758;2022-08-21T02:24:08;13.23;;;5.43;;
55260;SDS011;41123;51.416;6.758;2022-08-21T02:26:35;12.32;;;5.63;;
55260;SDS011;41123;51.416;6.758;2022-08-21T02:29:01;13.70;;;5.80;;
55260;SDS011;41123;51.416;6.758;2022-08-21T02:31:28;12.38;;;5.40;;
55260;SDS011;41123;51.416;6.758;2022-08-21T02:33:54;11.98;;;5.70;;
55260;SDS011;41123;51.416;6.758;2022-08-21T02:36:20;14.45;;;6.10;;
55260;SDS011;41123;51.416;6.758;2022-08-21T02:38:47;13.23;;;5.40;;
55260;SDS011;41123;51.416;6.758;2022-08-21T02:41:16;12.18;;;5.53;;
55260;SDS011;41123;51.416;6.758;2022-08-21T02:43:42;12.88;;;5.82;;
55260;SDS011;41123;51.416;6.758;2022-08-21T02:46:09;14.82;;;5.50;;
55260;SDS011;41123;51.416;6.758;2022-08-21T02:48:37;13.73;;;5.55;;
55260;SDS011;41123;51.416;6.758;2022-08-21T02:51:05;10.90;;;5.75;;
55260;SDS011;41123;51.416;6.758;2022-08-21T02:53:33;11.70;;;5.73;;
55260;SDS011;41123;51.416;6.758;2022-08-21T02:56:01;13.30;;;6.03;;
55260;SDS011;41123;51.416;6.758;2022-08-21T02:58:29;15.20;;;5.97;;
55260;SDS011;41123;51.416;6.758;2022-08-21T03:00:57;13.93;;;6.47;;
55260;SDS011;41123;51.416;6.758;2022-08-21T03:03:23;14.23;;;6.13;;
55260;SDS011;41123;51.416;6.758;2022-08-21T03:05:50;11.13;;;6.20;;
55260;SDS011;41123;51.416;6.758;2022-08-21T03:08:16;13.52;;;5.90;;
55260;SDS011;41123;51.416;6.758;2022-08-21T03:10:44;11.43;;;5.80;;
55260;SDS011;41123;51.416;6.758;2022-08-21T03:13:11;14.63;;;6.15;;
55260;SDS011;41123;51.416;6.758;2022-08-21T03:15:38;12.43;;;6.28;;
55260;SDS011;41123;51.416;6.758;2022-08-21T03:18:05;10.47;;;6.03;;
55260;SDS011;41123;51.416;6.758;2022-08-21T03:20:33;11.02;;;6.00;;
55260;SDS011;41123;51.416;6.758;2022-08-21T03:23:00;13.02;;;6.50;;
55260;SDS011;41123;51.416;6.758;2022-08-21T03:25:28;14.10;;;6.00;;
55260;SDS011;41123;51.416;6.758;2022-08-21T03:27:59;17.77;;;6.47;;
55260;SDS011;41123;51.416;6.758;2022-08-21T03:30:26;12.75;;;6.03;;
55260;SDS011;41123;51.416;6.758;2022-08-21T03:32:52;12.55;;;6.03;;
55260;SDS011;41123;51.416;6.758;2022-08-21T03:35:19;12.25;;;6.07;;
55260;SDS011;41123;51.416;6.758;2022-08-21T03:37:45;14.27;;;6.35;;
55260;SDS011;41123;51.416;6.758;2022-08-21T03:40:13;13.48;;;6.50;;
55260;SDS011;41123;51.416;6.758;2022-08-21T03:42:40;14.25;;;6.18;;
55260;SDS011;41123;51.416;6.758;2022-08-21T03:45:08;16.15;;;6.80;;
55260;SDS011;41123;51.416;6.758;2022-08-21T03:47:35;13.48;;;6.38;;
55260;SDS011;41123;51.416;6.758;2022-08-21T03:50:03;15.52;;;6.82;;
55260;SDS011;41123;51.416;6.758;2022-08-21T03:52:31;15.20;;;6.97;;
55260;SDS011;41123;51.416;6.758;2022-08-21T03:54:58;17.58;;;6.85;;
55260;SDS011;41123;51.416;6.758;2022-08-21T03:57:29;14.77;;;7.28;;
55260;SDS011;41123;51.416;6.758;2022-08-21T03:59:56;15.38;;;6.95;;
55260;SDS011;41123;51.416;6.758;2022-08-21T04:02:24;14.85;;;7.43;;
55260;SDS011;41123;51.416;6.758;2022-08-21T04:04:51;13.40;;;7.00;;
55260;SDS011;41123;51.416;6.758;2022-08-21T04:07:17;15.95;;;7.60;;
55260;SDS011;41123;51.416;6.758;2022-08-21T04:09:45;14.60;;;7.20;;
55260;SDS011;41123;51.416;6.758;2022-08-21T04:12:15;17.90;;;7.30;;
55260;SDS011;41123;51.416;6.758;2022-08-21T04:15:07;14.57;;;7.43;;
55260;SDS011;41123;51.416;6.758;2022-08-21T04:17:59;18.42;;;7.55;;
55260;SDS011;41123;51.416;6.758;2022-08-21T04:20:51;17.03;;;7.63;;
55260;SDS011;41123;51.416;6.758;2022-08-21T04:23:43;17.00;;;7.97;;
55260;SDS011;41123;51.416;6.758;2022-08-21T04:26:59;15.73;;;8.00;;
55260;SDS011;41123;51.416;6.758;2022-08-21T04:30:15;16.40;;;8.02;;
55260;SDS011;41123;51.416;6.758;2022-08-21T04:33:32;18.23;;;8.38;;
55260;SDS011;41123;51.416;6.758;2022-08-21T04:36:48;18.73;;;7.65;;
55260;SDS011;41123;51.416;6.758;2022-08-21T04:40:07;19.80;;;7.93;;
55260;SDS011;41123;51.416;6.758;2022-08-21T04:43:24;17.70;;;7.97;;
55260;SDS011;41123;51.416;6.758;2022-08-21T04:46:41;17.40;;;7.97;;
55260;SDS011;41123;51.416;6.758;2022-08-21T04:49:57;18.23;;;8.32;;
55260;SDS011;41123;51.416;6.758;2022-08-21T04:53:15;15.43;;;8.57;;
55260;SDS011;41123;51.416;6.758;2022-08-21T04:56:44;18.90;;;9.23;;
55260;SDS011;41123;51.416;6.758;2022-08-21T05:00:02;17.48;;;8.85;;
55260;SDS011;41123;51.416;6.758;2022-08-21T05:03:20;18.40;;;8.57;;
55260;SDS011;41123;51.416;6.758;2022-08-21T05:06:36;16.88;;;8.50;;
55260;SDS011;41123;51.416;6.758;2022-08-21T05:09:54;17.63;;;8.65;;
55260;SDS011;41123;51.416;6.758;2022-08-21T05:13:11;15.40;;;8.60;;
55260;SDS011;41123;51.416;6.758;2022-08-21T05:16:28;19.10;;;8.95;;
55260;SDS011;41123;51.416;6.758;2022-08-21T05:19:45;17.50;;;8.80;;
55260;SDS011;41123;51.416;6.758;2022-08-21T05:23:01;19.38;;;8.85;;
55260;SDS011;41123;51.416;6.758;2022-08-21T05:26:23;19.13;;;9.30;;
55260;SDS011;41123;51.416;6.758;2022-08-21T05:29:40;16.95;;;8.60;;
55260;SDS011;41123;51.416;6.758;2022-08-21T05:32:58;16.27;;;9.30;;
55260;SDS011;41123;51.416;6.758;2022-08-21T05:36:14;15.98;;;8.80;;
55260;SDS011;41123;51.416;6.758;2022-08-21T05:39:30;16.33;;;8.67;;
55260;SDS011;41123;51.416;6.758;2022-08-21T05:42:46;21.80;;;9.02;;
55260;SDS011;41123;51.416;6.758;2022-08-21T05:46:04;19.77;;;9.25;;
55260;SDS011;41123;51.416;6.758;2022-08-21T05:49:20;18.60;;;9.30;;
55260;SDS011;41123;51.416;6.758;2022-08-21T05:52:36;17.63;;;8.68;;
55260;SDS011;41123;51.416;6.758;2022-08-21T05:55:31;18.75;;;8.80;;
55260;SDS011;41123;51.416;6.758;2022-08-21T05:58:22;17.58;;;8.98;;
55260;SDS011;41123;51.416;6.758;2022-08-21T06:01:14;19.45;;;9.27;;
55260;SDS011;41123;51.416;6.758;2022-08-21T06:03:40;18.45;;;8.32;;
55260;SDS011;41123;51.416;6.758;2022-08-21T06:06:08;16.77;;;8.43;;
55260;SDS011;41123;51.416;6.758;2022-08-21T06:08:35;15.50;;;8.38;;
55260;SDS011;41123;51.416;6.758;2022-08-21T06:11:02;21.52;;;8.70;;
55260;SDS011;41123;51.416;6.758;2022-08-21T06:13:28;19.83;;;8.55;;
55260;SDS011;41123;51.416;6.758;2022-08-21T06:16:05;18.27;;;8.07;;
55260;SDS011;41123;51.416;6.758;2022-08-21T06:18:32;21.33;;;8.18;;
55260;SDS011;41123;51.416;6.758;2022-08-21T06:20:58;14.03;;;7.20;;
55260;SDS011;41123;51.416;6.758;2022-08-21T06:23:25;15.70;;;6.93;;
55260;SDS011;41123;51.416;6.758;2022-08-21T06:25:51;18.33;;;7.80;;
55260;SDS011;41123;51.416;6.758;2022-08-21T06:28:17;20.75;;;7.60;;
55260;SDS011;41123;51.416;6.758;2022-08-21T06:30:43;16.83;;;7.03;;
55260;SDS011;41123;51.416;6.758;2022-08-21T06:33:10;11.38;;;6.30;;
55260;SDS011;41123;51.416;6.758;2022-08-21T06:35:36;15.57;;;6.07;;
55260;SDS011;41123;51.416;6.758;2022-08-21T06:38:02;16.30;;;5.95;;
55260;SDS011;41123;51.416;6.758;2022-08-21T06:40:29;15.60;;;5.63;;
55260;SDS011;41123;51.416;6.758;2022-08-21T06:42:56;19.80;;;5.95;;
55260;SDS011;41123;51.416;6.758;2022-08-21T06:45:23;14.73;;;5.97;;
55260;SDS011;41123;51.416;6.758;2022-08-21T06:47:49;16.67;;;6.45;;
55260;SDS011;41123;51.416;6.758;2022-08-21T06:50:16;16.52;;;6.22;;
55260;SDS011;41123;51.416;6.758;2022-08-21T06:52:42;17.20;;;6.78;;
55260;SDS011;41123;51.416;6.758;2022-08-21T06:55:08;19.20;;;6.10;;
55260;SDS011;41123;51.416;6.758;2022-08-21T06:57:35;17.27;;;6.20;;
55260;SDS011;41123;51.416;6.758;2022-08-21T07:00:05;17.48;;;5.60;;
55260;SDS011;41123;51.416;6.758;2022-08-21T07:02:32;16.33;;;5.90;;
55260;SDS011;41123;51.416;6.758;2022-08-21T07:04:59;16.60;;;5.45;;
55260;SDS011;41123;51.416;6.758;2022-08-21T07:07:25;15.45;;;5.55;;
55260;SDS011;41123;51.416;6.758;2022-08-21T07:09:51;19.35;;;6.78;;
55260;SDS011;41123;51.416;6.758;2022-08-21T07:12:17;16.75;;;5.97;;
55260;SDS011;41123;51.416;6.758;2022-08-21T07:14:44;15.70;;;6.20;;
55260;SDS011;41123;51.416;6.758;2022-08-21T07:17:10;16.13;;;5.30;;
55260;SDS011;41123;51.416;6.758;2022-08-21T07:19:36;13.60;;;4.72;;
55260;SDS011;41123;51.416;6.758;2022-08-21T07:22:02;15.52;;;4.40;;
55260;SDS011;41123;51.416;6.758;2022-08-21T07:24:28;16.23;;;4.90;;
55260;SDS011;41123;51.416;6.758;2022-08-21T07:26:55;13.82;;;3.95;;
55260;SDS011;41123;51.416;6.758;2022-08-21T07:29:23;13.23;;;4.15;;
55260;SDS011;41123;51.416;6.758;2022-08-21T07:31:49;15.80;;;3.63;;
55260;SDS011;41123;51.416;6.758;2022-08-21T07:34:16;15.00;;;3.60;;
55260;SDS011;41123;51.416;6.758;2022-08-21T07:36:49;30.25;;;4.30;;
55260;SDS011;41123;51.416;6.758;2022-08-21T07:39:17;23.80;;;4.15;;
55260;SDS011;41123;51.416;6.758;2022-08-21T07:41:45;12.50;;;3.30;;
55260;SDS011;41123;51.416;6.758;2022-08-21T07:44:12;12.75;;;3.88;;
55260;SDS011;41123;51.416;6.758;2022-08-21T07:46:39;25.13;;;5.13;;
55260;SDS011;41123;51.416;6.758;2022-08-21T07:49:05;12.20;;;3.10;;
55260;SDS011;41123;51.416;6.758;2022-08-21T07:51:34;14.52;;;2.60;;
55260;SDS011;41123;51.416;6.758;2022-08-21T07:54:00;11.90;;;2.30;;
55260;SDS011;41123;51.416;6.758;2022-08-21T07:56:27;10.48;;;2.40;;
55260;SDS011;41123;51.416;6.758;2022-08-21T07:58:59;8.13;;;2.22;;
55260;SDS011;41123;51.416;6.758;2022-08-21T08:01:29;11.53;;;2.27;;
55260;SDS011;41123;51.416;6.758;2022-08-21T08:03:56;7.47;;;2.20;;
55260;SDS011;41123;51.416;6.758;2022-08-21T08:06:25;9.38;;;1.80;;
55260;SDS011;41123;51.416;6.758;2022-08-21T08:08:54;6.90;;;1.55;;
55260;SDS011;41123;51.416;6.758;2022-08-21T08:11:21;10.35;;;2.20;;
55260;SDS011;41123;51.416;6.758;2022-08-21T08:13:53;8.07;;;1.80;;
55260;SDS011;41123;51.416;6.758;2022-08-21T08:16:19;5.07;;;1.88;;
55260;SDS011;41123;51.416;6.758;2022-08-21T08:18:46;7.95;;;1.70;;
55260;SDS011;41123;51.416;6.758;2022-08-21T08:21:17;7.30;;;1.75;;
55260;SDS011;41123;51.416;6.758;2022-08-21T08:23:49;6.93;;;1.60;;
55260;SDS011;41123;51.416;6.758;2022-08-21T08:26:15;9.27;;;1.70;;
55260;SDS011;41123;51.416;6.758;2022-08-21T08:28:47;6.60;;;1.60;;
55260;SDS011;41123;51.416;6.758;2022-08-21T08:31:19;6.55;;;1.50;;
55260;SDS011;41123;51.416;6.758;2022-08-21T08:33:48;6.93;;;1.73;;
55260;SDS011;41123;51.416;6.758;2022-08-21T08:36:15;5.85;;;1.50;;
55260;SDS011;41123;51.416;6.758;2022-08-21T08:38:46;6.13;;;1.55;;
55260;SDS011;41123;51.416;6.758;2022-08-21T08:41:17;6.68;;;1.55;;
55260;SDS011;41123;51.416;6.758;2022-08-21T08:43:51;5.25;;;1.35;;
55260;SDS011;41123;51.416;6.758;2022-08-21T08:46:26;5.43;;;1.33;;
55260;SDS011;41123;51.416;6.758;2022-08-21T08:48:57;5.07;;;1.40;;
55260;SDS011;41123;51.416;6.758;2022-08-21T08:54:02;9.00;;;2.35;;
55260;SDS011;41123;51.416;6.758;2022-08-21T08:56:33;5.47;;;1.50;;
55260;SDS011;41123;51.416;6.758;2022-08-21T08:59:07;7.53;;;1.45;;
55260;SDS011;41123;51.416;6.758;2022-08-21T09:01:36;4.05;;;1.40;;
55260;SDS011;41123;51.416;6.758;2022-08-21T09:04:03;5.40;;;1.40;;
55260;SDS011;41123;51.416;6.758;2022-08-21T09:09:09;5.03;;;1.40;;
55260;SDS011;41123;51.416;6.758;2022-08-21T09:11:44;6.93;;;1.20;;
55260;SDS011;41123;51.416;6.758;2022-08-21T09:14:22;5.10;;;1.40;;
55260;SDS011;41123;51.416;6.758;2022-08-21T09:21:57;5.93;;;1.63;;
55260;SDS011;41123;51.416;6.758;2022-08-21T09:27:18;6.18;;;1.90;;
55260;SDS011;41123;51.416;6.758;2022-08-21T09:29:48;6.47;;;1.60;;
55260;SDS011;41123;51.416;6.758;2022-08-21T09:32:17;5.70;;;1.52;;
55260;SDS011;41123;51.416;6.758;2022-08-21T09:35:03;5.72;;;1.50;;
55260;SDS011;41123;51.416;6.758;2022-08-21T09:37:53;5.60;;;1.47;;
55260;SDS011;41123;51.416;6.758;2022-08-21T09:44:25;6.85;;;1.50;;
55260;SDS011;41123;51.416;6.758;2022-08-21T09:47:18;3.97;;;1.20;;
55260;SDS011;41123;51.416;6.758;2022-08-21T09:49:49;4.10;;;1.30;;
55260;SDS011;41123;51.416;6.758;2022-08-21T09:52:17;3.78;;;1.20;;
55260;SDS011;41123;51.416;6.758;2022-08-21T09:54:49;4.75;;;1.60;;
55260;SDS011;41123;51.416;6.758;2022-08-21T09:57:22;5.03;;;1.50;;
55260;SDS011;41123;51.416;6.758;2022-08-21T10:00:09;5.18;;;1.50;;
55260;SDS011;41123;51.416;6.758;2022-08-21T10:02:39;6.35;;;1.65;;
55260;SDS011;41123;51.416;6.758;2022-08-21T10:05:15;5.90;;;1.70;;
55260;SDS011;41123;51.416;6.758;2022-08-21T10:07:42;5.82;;;1.55;;
55260;SDS011;41123;51.416;6.758;2022-08-21T10:18:48;8.55;;;1.73;;
55260;SDS011;41123;51.416;6.758;2022-08-21T10:26:44;6.03;;;1.58;;
55260;SDS011;41123;51.416;6.758;2022-08-21T10:29:38;5.82;;;1.40;;
55260;SDS011;41123;51.416;6.758;2022-08-21T10:32:27;4.57;;;1.42;;
55260;SDS011;41123;51.416;6.758;2022-08-21T10:40:01;6.93;;;1.50;;
55260;SDS011;41123;51.416;6.758;2022-08-21T10:45:25;6.32;;;1.52;;
55260;SDS011;41123;51.416;6.758;2022-08-21T10:47:57;5.30;;;1.40;;
55260;SDS011;41123;51.416;6.758;2022-08-21T10:56:19;6.47;;;1.60;;
55260;SDS011;41123;51.416;6.758;2022-08-21T11:02:35;5.75;;;1.33;;
55260;SDS011;41123;51.416;6.758;2022-08-21T11:11:12;3.55;;;1.20;;
55260;SDS011;41123;51.416;6.758;2022-08-21T11:13:45;3.10;;;1.27;;
55260;SDS011;41123;51.416;6.758;2022-08-21T11:16:37;3.07;;;1.10;;
55260;SDS011;41123;51.416;6.758;2022-08-21T11:19:30;5.57;;;1.17;;
55260;SDS011;41123;51.416;6.758;2022-08-21T11:28:09;4.65;;;1.20;;
55260;SDS011;41123;51.416;6.758;2022-08-21T11:34:27;4.10;;;1.13;;
55260;SDS011;41123;51.416;6.758;2022-08-21T12:00:15;18.30;;;8.68;;
55260;SDS011;41123;51.416;6.758;2022-08-21T15:58:16;2.63;;;1.10;;
55260;SDS011;41123;51.416;6.758;2022-08-21T16:00:42;4.53;;;1.20;;
55260;SDS011;41123;51.416;6.758;2022-08-21T16:03:10;6.20;;;1.17;;
55260;SDS011;41123;51.416;6.758;2022-08-21T16:05:39;3.60;;;1.00;;
55260;SDS011;41123;51.416;6.758;2022-08-21T16:08:05;4.20;;;1.20;;
55260;SDS011;41123;51.416;6.758;2022-08-21T16:10:32;4.05;;;1.33;;
55260;SDS011;41123;51.416;6.758;2022-08-21T16:13:00;5.20;;;1.47;;
55260;SDS011;41123;51.416;6.758;2022-08-21T16:15:27;5.50;;;1.70;;
55260;SDS011;41123;51.416;6.758;2022-08-21T16:17:54;6.88;;;2.95;;
55260;SDS011;41123;51.416;6.758;2022-08-21T16:20:23;7.70;;;2.70;;
55260;SDS011;41123;51.416;6.758;2022-08-21T16:22:50;6.17;;;2.50;;
55260;SDS011;41123;51.416;6.758;2022-08-21T16:25:17;6.40;;;2.20;;
55260;SDS011;41123;51.416;6.758;2022-08-21T16:27:50;7.28;;;2.10;;
55260;SDS011;41123;51.416;6.758;2022-08-21T16:30:18;5.45;;;1.50;;
55260;SDS011;41123;51.416;6.758;2022-08-21T16:32:45;5.80;;;1.30;;
55260;SDS011;41123;51.416;6.758;2022-08-21T16:35:12;4.30;;;1.60;;
55260;SDS011;41123;51.416;6.758;2022-08-21T16:37:40;4.35;;;1.52;;
55260;SDS011;41123;51.416;6.758;2022-08-21T16:40:07;4.30;;;1.20;;
55260;SDS011;41123;51.416;6.758;2022-08-21T16:42:34;5.18;;;1.80;;
55260;SDS011;41123;51.416;6.758;2022-08-21T16:45:02;5.00;;;1.60;;
55260;SDS011;41123;51.416;6.758;2022-08-21T16:47:29;7.03;;;1.50;;
55260;SDS011;41123;51.416;6.758;2022-08-21T16:49:56;5.38;;;1.50;;
55260;SDS011;41123;51.416;6.758;2022-08-21T16:52:22;4.50;;;1.23;;
55260;SDS011;41123;51.416;6.758;2022-08-21T16:54:48;4.30;;;1.30;;
55260;SDS011;41123;51.416;6.758;2022-08-21T16:57:14;6.73;;;1.50;;
55260;SDS011;41123;51.416;6.758;2022-08-21T16:59:41;4.68;;;1.40;;
55260;SDS011;41123;51.416;6.758;2022-08-21T17:02:17;7.90;;;1.40;;
55260;SDS011;41123;51.416;6.758;2022-08-21T17:04:46;6.28;;;1.40;;
55260;SDS011;41123;51.416;6.758;2022-08-21T17:07:12;5.85;;;1.60;;
55260;SDS011;41123;51.416;6.758;2022-08-21T17:09:38;7.00;;;1.60;;
55260;SDS011;41123;51.416;6.758;2022-08-21T17:12:04;6.47;;;1.23;;
55260;SDS011;41123;51.416;6.758;2022-08-21T17:14:32;6.13;;;1.50;;
55260;SDS011;41123;51.416;6.758;2022-08-21T17:17:00;4.95;;;1.60;;
55260;SDS011;41123;51.416;6.758;2022-08-21T17:19:28;6.68;;;1.63;;
55260;SDS011;41123;51.416;6.758;2022-08-21T17:21:54;7.07;;;1.60;;
55260;SDS011;41123;51.416;6.758;2022-08-21T17:24:20;5.23;;;1.50;;
55260;SDS011;41123;51.416;6.758;2022-08-21T17:26:46;6.43;;;1.70;;
55260;SDS011;41123;51.416;6.758;2022-08-21T17:29:13;6.73;;;1.60;;
55260;SDS011;41123;51.416;6.758;2022-08-21T17:31:40;7.35;;;1.40;;
55260;SDS011;41123;51.416;6.758;2022-08-21T17:34:07;3.42;;;1.20;;
55260;SDS011;41123;51.416;6.758;2022-08-21T17:36:35;5.67;;;1.53;;
55260;SDS011;41123;51.416;6.758;2022-08-21T17:39:02;3.70;;;1.30;;
55260;SDS011;41123;51.416;6.758;2022-08-21T17:41:28;6.60;;;1.58;;
55260;SDS011;41123;51.416;6.758;2022-08-21T17:43:54;7.00;;;1.60;;
55260;SDS011;41123;51.416;6.758;2022-08-21T17:46:22;5.63;;;2.20;;
55260;SDS011;41123;51.416;6.758;2022-08-21T17:48:50;6.35;;;1.50;;
55260;SDS011;41123;51.416;6.758;2022-08-21T17:51:17;8.35;;;1.70;;
55260;SDS011;41123;51.416;6.758;2022-08-21T17:53:43;5.70;;;1.50;;
55260;SDS011;41123;51.416;6.758;2022-08-21T17:56:11;5.10;;;1.70;;
55260;SDS011;41123;51.416;6.758;2022-08-21T17:58:37;8.27;;;1.63;;
55260;SDS011;41123;51.416;6.758;2022-08-21T18:01:04;5.85;;;1.77;;
55260;SDS011;41123;51.416;6.758;2022-08-21T18:03:30;7.40;;;1.85;;
55260;SDS011;41123;51.416;6.758;2022-08-21T18:05:59;9.32;;;1.90;;
55260;SDS011;41123;51.416;6.758;2022-08-21T18:08:25;7.40;;;1.88;;
55260;SDS011;41123;51.416;6.758;2022-08-21T18:10:52;6.07;;;1.73;;
55260;SDS011;41123;51.416;6.758;2022-08-21T18:13:23;6.38;;;1.60;;
55260;SDS011;41123;51.416;6.758;2022-08-21T18:15:51;5.18;;;1.70;;
55260;SDS011;41123;51.416;6.758;2022-08-21T18:18:17;8.13;;;2.00;;
55260;SDS011;41123;51.416;6.758;2022-08-21T18:20:44;4.75;;;1.60;;
55260;SDS011;41123;51.416;6.758;2022-08-21T18:23:11;6.03;;;1.70;;
55260;SDS011;41123;51.416;6.758;2022-08-21T18:25:37;7.85;;;1.70;;
55260;SDS011;41123;51.416;6.758;2022-08-21T18:28:04;8.05;;;2.25;;
55260;SDS011;41123;51.416;6.758;2022-08-21T18:30:32;5.72;;;2.22;;
55260;SDS011;41123;51.416;6.758;2022-08-21T18:32:59;7.78;;;2.55;;
55260;SDS011;41123;51.416;6.758;2022-08-21T18:35:25;6.78;;;2.47;;
55260;SDS011;41123;51.416;6.758;2022-08-21T18:37:51;7.78;;;2.53;;
55260;SDS011;41123;51.416;6.758;2022-08-21T18:40:18;6.55;;;2.13;;
55260;SDS011;41123;51.416;6.758;2022-08-21T18:42:45;7.82;;;2.60;;
55260;SDS011;41123;51.416;6.758;2022-08-21T18:45:14;7.78;;;2.28;;
55260;SDS011;41123;51.416;6.758;2022-08-21T18:47:41;7.20;;;2.40;;
55260;SDS011;41123;51.416;6.758;2022-08-21T18:50:09;8.23;;;2.00;;
55260;SDS011;41123;51.416;6.758;2022-08-21T18:52:36;7.45;;;2.05;;
55260;SDS011;41123;51.416;6.758;2022-08-21T18:55:03;7.22;;;2.03;;
55260;SDS011;41123;51.416;6.758;2022-08-21T18:57:29;6.63;;;2.10;;
55260;SDS011;41123;51.416;6.758;2022-08-21T18:59:56;9.80;;;2.65;;
55260;SDS011;41123;51.416;6.758;2022-08-21T19:02:22;7.47;;;2.28;;
55260;SDS011;41123;51.416;6.758;2022-08-21T19:04:49;5.85;;;1.75;;
55260;SDS011;41123;51.416;6.758;2022-08-21T19:07:15;8.30;;;2.15;;
55260;SDS011;41123;51.416;6.758;2022-08-21T19:09:44;8.77;;;2.40;;
55260;SDS011;41123;51.416;6.758;2022-08-21T19:12:10;8.00;;;1.95;;
55260;SDS011;41123;51.416;6.758;2022-08-21T19:14:39;5.47;;;2.03;;
55260;SDS011;41123;51.416;6.758;2022-08-21T19:17:05;5.50;;;2.00;;
55260;SDS011;41123;51.416;6.758;2022-08-21T19:19:31;8.50;;;2.30;;
55260;SDS011;41123;51.416;6.758;2022-08-21T19:21:58;7.47;;;2.05;;
55260;SDS011;41123;51.416;6.758;2022-08-21T19:24:24;6.90;;;2.30;;
55260;SDS011;41123;51.416;6.758;2022-08-21T19:26:50;8.20;;;2.40;;
55260;SDS011;41123;51.416;6.758;2022-08-21T19:29:17;8.60;;;2.50;;
55260;SDS011;41123;51.416;6.758;2022-08-21T19:31:44;9.90;;;2.23;;
55260;SDS011;41123;51.416;6.758;2022-08-21T19:34:13;14.43;;;2.33;;
55260;SDS011;41123;51.416;6.758;2022-08-21T19:36:40;7.73;;;2.07;;
55260;SDS011;41123;51.416;6.758;2022-08-21T19:39:06;9.63;;;2.45;;
55260;SDS011;41123;51.416;6.758;2022-08-21T19:41:34;11.18;;;2.50;;
55260;SDS011;41123;51.416;6.758;2022-08-21T19:44:03;10.48;;;2.45;;
55260;SDS011;41123;51.416;6.758;2022-08-21T19:46:32;9.33;;;2.30;;
55260;SDS011;41123;51.416;6.758;2022-08-21T19:48:59;8.95;;;2.05;;
55260;SDS011;41123;51.416;6.758;2022-08-21T19:51:25;7.20;;;2.00;;
55260;SDS011;41123;51.416;6.758;2022-08-21T19:53:52;8.05;;;1.90;;
55260;SDS011;41123;51.416;6.758;2022-08-21T19:56:20;7.07;;;2.20;;
55260;SDS011;41123;51.416;6.758;2022-08-21T19:58:46;10.10;;;2.57;;
55260;SDS011;41123;51.416;6.758;2022-08-21T20:01:14;10.40;;;2.47;;
55260;SDS011;41123;51.416;6.758;2022-08-21T20:03:41;10.77;;;3.03;;
55260;SDS011;41123;51.416;6.758;2022-08-21T20:06:07;12.70;;;3.95;;
55260;SDS011;41123;51.416;6.758;2022-08-21T20:08:34;11.20;;;3.92;;
55260;SDS011;41123;51.416;6.758;2022-08-21T20:11:00;12.88;;;4.28;;
55260;SDS011;41123;51.416;6.758;2022-08-21T20:13:27;9.73;;;3.30;;
55260;SDS011;41123;51.416;6.758;2022-08-21T20:15:58;9.95;;;3.72;;
55260;SDS011;41123;51.416;6.758;2022-08-21T20:18:25;8.47;;;3.10;;
55260;SDS011;41123;51.416;6.758;2022-08-21T20:20:51;9.27;;;3.00;;
55260;SDS011;41123;51.416;6.758;2022-08-21T20:23:17;7.80;;;2.27;;
55260;SDS011;41123;51.416;6.758;2022-08-21T20:25:43;7.10;;;2.13;;
55260;SDS011;41123;51.416;6.758;2022-08-21T20:28:10;9.32;;;2.30;;
55260;SDS011;41123;51.416;6.758;2022-08-21T20:30:36;8.95;;;2.63;;
55260;SDS011;41123;51.416;6.758;2022-08-21T20:33:03;7.17;;;2.47;;
55260;SDS011;41123;51.416;6.758;2022-08-21T20:35:29;8.23;;;2.60;;
55260;SDS011;41123;51.416;6.758;2022-08-21T20:37:55;8.45;;;2.10;;